Aspen-Pitkin Co/Sardy Field
KASE : now visible

Airfield :











YOU CAN JOIN US ON...

 
LOGIN :

Register | Disclaimer

   EN    FR    IT 

 









Legend :    VFR   Marginal VFR   IFR   Intensive IFR   Very Intensive IFR
Visi :
Ceiling :
>= 8 km
>= 3000ft
5 to 8 km
1000 to 3000 ft
1500m to 5 km
500 to 1000 ft
800 to 1500m
200 to 500 ft
< 800m
< 200 ft
Symbols :   Thunderstorms  Fog  Heavy snow  Heavy precipitations  Wind > 20 kt






- Airport Elevation : 7820 ft


KASE - Aspen-Pitkin Co/Sardy Field

CURRENT METAR :
  • 291353Z 05003KT 10SM CLR 14/03 A3038 RMK AO2 SLP165 T01440033

EXPIRED METARs :
  • 291253Z 00000KT 10SM CLR 12/03 A3038 RMK AO2 SLP163 T01170033
  • 291153Z AUTO 00000KT 10SM CLR 08/03 A3037 RMK AO2 SLP168 T00780028 10128 20078 53005

TAF KASE
Valid from the 29 at 12:00 until the 30 at 12:00 UTC


291127Z 2912/3012 18005KT P6SM SCT110
FM291800 35009KT P6SM FEW080 SCT250
FM292100 31009KT P6SM FEW080 SCT100
FM300200 24005KT P6SM FEW080 SCT200
FM300600 16005KT P6SM FEW090 FEW200
KZDV FIR / North America



MET'MAP, your aeronautical weather chart ! - Copyright ORBIFLY December 2007 - Disclaimer

ORBIFLY MET'MAP TEAM :

Programming & Development : Alexandra Zaïnal
Concept & original design : Baudouin d'Aumeries
Assistance for programming : Marc-Olivier Méhu
Technical & hardware support : Manuel Goepfert

Contact : metmap@orbifly.com




SOURCES & CREDITS :

   NOAA       Earth
Advisory